sensor_id;sensor_type;location;lat;lon;timestamp;pressure;altitude;pressure_sealevel;temperature;humidity
41947;BME280;27638;42.184;24.848;2023-04-05T00:01:28;99163.97;;;7.23;87.36
41947;BME280;27638;42.184;24.848;2023-04-05T00:03:55;99164.66;;;7.25;87.43
41947;BME280;27638;42.184;24.848;2023-04-05T00:06:28;99158.72;;;7.23;88.45
41947;BME280;27638;42.184;24.848;2023-04-05T00:08:54;99163.97;;;7.23;88.19
41947;BME280;27638;42.184;24.848;2023-04-05T00:11:27;99167.44;;;7.23;86.74
41947;BME280;27638;42.184;24.848;2023-04-05T00:13:54;99156.44;;;7.28;86.46
41947;BME280;27638;42.184;24.848;2023-04-05T00:16:20;99162.56;;;7.28;85.39
41947;BME280;27638;42.184;24.848;2023-04-05T00:18:46;99152.78;;;7.21;85.62
41947;BME280;27638;42.184;24.848;2023-04-05T00:21:17;99158.34;;;7.18;85.83
41947;BME280;27638;42.184;24.848;2023-04-05T00:23:46;99160.31;;;7.16;86.38
41947;BME280;27638;42.184;24.848;2023-04-05T00:26:13;99164.28;;;7.20;87.23
41947;BME280;27638;42.184;24.848;2023-04-05T00:28:38;99157.41;;;7.27;87.80
41947;BME280;27638;42.184;24.848;2023-04-05T00:31:04;99152.97;;;7.27;87.44
41947;BME280;27638;42.184;24.848;2023-04-05T00:33:31;99157.97;;;7.30;87.44
41947;BME280;27638;42.184;24.848;2023-04-05T00:35:56;99169.34;;;7.31;87.37
41947;BME280;27638;42.184;24.848;2023-04-05T00:38:22;99167.59;;;7.22;87.00
41947;BME280;27638;42.184;24.848;2023-04-05T00:40:47;99164.09;;;7.13;87.51
41947;BME280;27638;42.184;24.848;2023-04-05T00:43:13;99161.91;;;7.09;86.64
41947;BME280;27638;42.184;24.848;2023-04-05T00:45:38;99177.16;;;7.23;85.64
41947;BME280;27638;42.184;24.848;2023-04-05T00:48:04;99176.78;;;7.18;85.82
41947;BME280;27638;42.184;24.848;2023-04-05T00:50:30;99182.81;;;7.10;85.90
41947;BME280;27638;42.184;24.848;2023-04-05T00:52:57;99177.09;;;7.15;86.65
41947;BME280;27638;42.184;24.848;2023-04-05T00:55:23;99176.22;;;7.06;85.63
41947;BME280;27638;42.184;24.848;2023-04-05T00:57:49;99187.25;;;7.10;85.67
41947;BME280;27638;42.184;24.848;2023-04-05T01:00:15;99185.22;;;7.03;86.11
41947;BME280;27638;42.184;24.848;2023-04-05T01:02:48;99178.84;;;7.06;87.17
41947;BME280;27638;42.184;24.848;2023-04-05T01:08:24;99185.03;;;7.23;86.47
41947;BME280;27638;42.184;24.848;2023-04-05T01:10:59;99185.88;;;7.23;87.06
41947;BME280;27638;42.184;24.848;2023-04-05T01:13:28;99179.34;;;7.10;86.53
41947;BME280;27638;42.184;24.848;2023-04-05T01:15:54;99183.66;;;7.11;86.71
41947;BME280;27638;42.184;24.848;2023-04-05T01:18:20;99185.22;;;7.03;86.28
41947;BME280;27638;42.184;24.848;2023-04-05T01:21:13;99181.63;;;7.04;85.45
41947;BME280;27638;42.184;24.848;2023-04-05T01:32:20;99196.22;;;6.99;85.80
41947;BME280;27638;42.184;24.848;2023-04-05T01:35:28;99197.34;;;6.96;85.91
41947;BME280;27638;42.184;24.848;2023-04-05T01:38:00;99195.94;;;6.84;86.72
41947;BME280;27638;42.184;24.848;2023-04-05T01:40:27;99210.66;;;6.95;86.31
41947;BME280;27638;42.184;24.848;2023-04-05T01:42:54;99203.28;;;6.98;86.85
41947;BME280;27638;42.184;24.848;2023-04-05T01:45:19;99199.00;;;6.97;86.58
41947;BME280;27638;42.184;24.848;2023-04-05T01:47:45;99209.38;;;6.99;86.23
41947;BME280;27638;42.184;24.848;2023-04-05T01:50:10;99209.53;;;6.97;85.61
41947;BME280;27638;42.184;24.848;2023-04-05T01:52:36;99212.03;;;6.99;86.15
41947;BME280;27638;42.184;24.848;2023-04-05T01:55:01;99218.56;;;6.95;85.98
41947;BME280;27638;42.184;24.848;2023-04-05T01:57:27;99213.31;;;6.95;86.47
41947;BME280;27638;42.184;24.848;2023-04-05T01:59:53;99218.41;;;6.96;86.70
41947;BME280;27638;42.184;24.848;2023-04-05T02:02:18;99208.09;;;7.03;86.70
41947;BME280;27638;42.184;24.848;2023-04-05T02:04:44;99218.47;;;7.04;85.79
41947;BME280;27638;42.184;24.848;2023-04-05T02:07:09;99221.50;;;6.92;85.66
41947;BME280;27638;42.184;24.848;2023-04-05T02:09:35;99229.09;;;6.95;86.14
41947;BME280;27638;42.184;24.848;2023-04-05T02:12:00;99228.03;;;6.88;86.17
41947;BME280;27638;42.184;24.848;2023-04-05T02:14:26;99227.13;;;6.97;85.07
41947;BME280;27638;42.184;24.848;2023-04-05T02:16:51;99230.66;;;7.05;86.07
41947;BME280;27638;42.184;24.848;2023-04-05T02:19:21;99226.28;;;7.14;84.95
41947;BME280;27638;42.184;24.848;2023-04-05T02:21:51;99247.56;;;7.21;84.78
41947;BME280;27638;42.184;24.848;2023-04-05T02:24:20;99236.88;;;7.22;85.16
41947;BME280;27638;42.184;24.848;2023-04-05T02:26:46;99238.38;;;7.25;86.05
41947;BME280;27638;42.184;24.848;2023-04-05T02:29:11;99246.38;;;7.15;86.03
41947;BME280;27638;42.184;24.848;2023-04-05T02:31:37;99237.28;;;7.10;84.74
41947;BME280;27638;42.184;24.848;2023-04-05T02:34:02;99251.94;;;7.12;85.54
41947;BME280;27638;42.184;24.848;2023-04-05T02:36:30;99252.16;;;7.19;84.96
41947;BME280;27638;42.184;24.848;2023-04-05T02:38:55;99251.78;;;7.14;84.37
41947;BME280;27638;42.184;24.848;2023-04-05T02:41:20;99259.31;;;7.09;84.10
41947;BME280;27638;42.184;24.848;2023-04-05T02:43:48;99255.19;;;7.06;84.58
41947;BME280;27638;42.184;24.848;2023-04-05T02:46:14;99251.19;;;7.02;84.27
41947;BME280;27638;42.184;24.848;2023-04-05T02:48:39;99250.75;;;6.89;84.68
41947;BME280;27638;42.184;24.848;2023-04-05T02:51:05;99248.66;;;6.92;84.85
41947;BME280;27638;42.184;24.848;2023-04-05T02:53:30;99251.03;;;7.03;85.10
41947;BME280;27638;42.184;24.848;2023-04-05T02:55:56;99253.91;;;7.10;84.66
41947;BME280;27638;42.184;24.848;2023-04-05T02:58:23;99258.94;;;7.03;84.09
41947;BME280;27638;42.184;24.848;2023-04-05T03:00:49;99259.78;;;7.04;83.86
41947;BME280;27638;42.184;24.848;2023-04-05T03:03:22;99261.88;;;7.00;83.87
41947;BME280;27638;42.184;24.848;2023-04-05T03:05:48;99262.34;;;6.96;84.65
41947;BME280;27638;42.184;24.848;2023-04-05T03:08:14;99260.75;;;6.85;85.14
41947;BME280;27638;42.184;24.848;2023-04-05T03:10:46;99270.53;;;6.93;85.41
41947;BME280;27638;42.184;24.848;2023-04-05T03:13:12;99273.31;;;6.91;84.98
41947;BME280;27638;42.184;24.848;2023-04-05T03:15:38;99264.06;;;6.87;84.64
41947;BME280;27638;42.184;24.848;2023-04-05T03:18:03;99272.41;;;7.00;85.19
41947;BME280;27638;42.184;24.848;2023-04-05T03:20:29;99270.06;;;6.97;84.58
41947;BME280;27638;42.184;24.848;2023-04-05T03:22:54;99273.63;;;6.88;84.65
41947;BME280;27638;42.184;24.848;2023-04-05T03:25:20;99272.94;;;6.86;84.59
41947;BME280;27638;42.184;24.848;2023-04-05T03:27:45;99276.91;;;6.90;84.96
41947;BME280;27638;42.184;24.848;2023-04-05T03:30:11;99271.81;;;6.89;84.04
41947;BME280;27638;42.184;24.848;2023-04-05T03:32:37;99269.09;;;6.81;85.01
41947;BME280;27638;42.184;24.848;2023-04-05T03:35:02;99266.16;;;6.84;85.23
41947;BME280;27638;42.184;24.848;2023-04-05T03:37:28;99270.16;;;6.88;85.58
41947;BME280;27638;42.184;24.848;2023-04-05T03:39:53;99275.25;;;6.89;85.64
41947;BME280;27638;42.184;24.848;2023-04-05T03:42:19;99277.59;;;6.92;85.67
41947;BME280;27638;42.184;24.848;2023-04-05T03:44:45;99271.22;;;6.95;85.81
41947;BME280;27638;42.184;24.848;2023-04-05T03:47:12;99272.41;;;6.83;85.20
41947;BME280;27638;42.184;24.848;2023-04-05T03:49:37;99288.50;;;6.80;85.58
41947;BME280;27638;42.184;24.848;2023-04-05T03:52:03;99279.63;;;6.81;85.39
41947;BME280;27638;42.184;24.848;2023-04-05T03:54:28;99278.41;;;6.75;84.92
41947;BME280;27638;42.184;24.848;2023-04-05T03:56:54;99285.47;;;6.75;85.05
41947;BME280;27638;42.184;24.848;2023-04-05T03:59:20;99289.97;;;6.64;85.67
41947;BME280;27638;42.184;24.848;2023-04-05T04:01:46;99283.34;;;6.60;85.16
41947;BME280;27638;42.184;24.848;2023-04-05T04:04:12;99293.00;;;6.69;85.96
41947;BME280;27638;42.184;24.848;2023-04-05T04:06:37;99295.09;;;6.66;85.28
41947;BME280;27638;42.184;24.848;2023-04-05T04:09:03;99298.03;;;6.63;85.55
41947;BME280;27638;42.184;24.848;2023-04-05T04:11:30;99302.31;;;6.64;85.60
41947;BME280;27638;42.184;24.848;2023-04-05T04:13:55;99307.41;;;6.65;86.14
41947;BME280;27638;42.184;24.848;2023-04-05T04:16:21;99309.91;;;6.67;86.08
41947;BME280;27638;42.184;24.848;2023-04-05T04:18:46;99308.41;;;6.82;86.15
41947;BME280;27638;42.184;24.848;2023-04-05T04:21:12;99315.94;;;6.77;85.09
41947;BME280;27638;42.184;24.848;2023-04-05T04:23:39;99317.66;;;6.86;84.78
41947;BME280;27638;42.184;24.848;2023-04-05T04:26:04;99317.75;;;6.77;85.17
41947;BME280;27638;42.184;24.848;2023-04-05T04:28:30;99320.75;;;6.82;85.13
41947;BME280;27638;42.184;24.848;2023-04-05T04:30:59;99321.28;;;6.85;84.24
41947;BME280;27638;42.184;24.848;2023-04-05T04:33:29;99322.19;;;6.94;84.84
41947;BME280;27638;42.184;24.848;2023-04-05T04:35:55;99315.19;;;6.85;84.56
41947;BME280;27638;42.184;24.848;2023-04-05T04:38:20;99325.28;;;6.89;85.08
41947;BME280;27638;42.184;24.848;2023-04-05T04:40:46;99327.06;;;6.89;83.67
41947;BME280;27638;42.184;24.848;2023-04-05T04:43:14;99336.94;;;6.87;84.96
41947;BME280;27638;42.184;24.848;2023-04-05T04:45:47;99337.50;;;6.81;84.85
41947;BME280;27638;42.184;24.848;2023-04-05T04:48:16;99337.16;;;6.93;85.01
41947;BME280;27638;42.184;24.848;2023-04-05T04:50:42;99336.47;;;6.91;83.29
41947;BME280;27638;42.184;24.848;2023-04-05T04:53:11;99346.19;;;6.91;84.05
41947;BME280;27638;42.184;24.848;2023-04-05T04:55:40;99345.88;;;6.94;84.46
41947;BME280;27638;42.184;24.848;2023-04-05T04:58:09;99349.63;;;6.91;83.57
41947;BME280;27638;42.184;24.848;2023-04-05T05:00:42;99350.91;;;6.87;84.83
41947;BME280;27638;42.184;24.848;2023-04-05T05:03:11;99356.34;;;7.03;85.12
41947;BME280;27638;42.184;24.848;2023-04-05T05:05:48;99349.34;;;7.12;83.96
41947;BME280;27638;42.184;24.848;2023-04-05T05:08:15;99350.19;;;7.13;83.61
41947;BME280;27638;42.184;24.848;2023-04-05T05:10:41;99347.63;;;7.21;84.45
41947;BME280;27638;42.184;24.848;2023-04-05T05:13:07;99364.63;;;7.26;83.95
41947;BME280;27638;42.184;24.848;2023-04-05T05:15:33;99362.84;;;7.27;82.99
41947;BME280;27638;42.184;24.848;2023-04-05T05:17:58;99361.72;;;7.29;83.74
41947;BME280;27638;42.184;24.848;2023-04-05T05:20:24;99356.00;;;7.34;82.08
41947;BME280;27638;42.184;24.848;2023-04-05T05:22:53;99362.94;;;7.35;82.54
41947;BME280;27638;42.184;24.848;2023-04-05T05:25:19;99356.47;;;7.47;82.38
41947;BME280;27638;42.184;24.848;2023-04-05T05:27:48;99361.13;;;7.53;82.92
41947;BME280;27638;42.184;24.848;2023-04-05T05:30:14;99370.97;;;7.51;83.08
41947;BME280;27638;42.184;24.848;2023-04-05T05:32:40;99364.59;;;7.54;82.73
41947;BME280;27638;42.184;24.848;2023-04-05T05:35:06;99362.78;;;7.36;82.07
41947;BME280;27638;42.184;24.848;2023-04-05T05:37:33;99375.78;;;7.20;82.49
41947;BME280;27638;42.184;24.848;2023-04-05T05:39:59;99369.63;;;7.47;82.74
41947;BME280;27638;42.184;24.848;2023-04-05T05:42:25;99370.97;;;7.51;80.93
41947;BME280;27638;42.184;24.848;2023-04-05T05:44:51;99366.38;;;7.53;81.70
41947;BME280;27638;42.184;24.848;2023-04-05T05:47:17;99368.34;;;7.69;82.08
41947;BME280;27638;42.184;24.848;2023-04-05T05:49:43;99366.38;;;7.71;80.25
41947;BME280;27638;42.184;24.848;2023-04-05T05:52:08;99363.03;;;7.87;80.46
41947;BME280;27638;42.184;24.848;2023-04-05T05:54:34;99368.50;;;7.93;79.96
41947;BME280;27638;42.184;24.848;2023-04-05T05:57:00;99367.22;;;7.97;80.79
41947;BME280;27638;42.184;24.848;2023-04-05T05:59:26;99360.09;;;7.90;79.55
41947;BME280;27638;42.184;24.848;2023-04-05T06:01:53;99356.94;;;7.86;79.89
41947;BME280;27638;42.184;24.848;2023-04-05T06:04:19;99359.81;;;7.75;78.86
41947;BME280;27638;42.184;24.848;2023-04-05T06:06:45;99359.19;;;7.81;81.14
41947;BME280;27638;42.184;24.848;2023-04-05T06:09:15;99357.44;;;7.90;80.82
41947;BME280;27638;42.184;24.848;2023-04-05T06:11:41;99364.84;;;7.86;79.97
41947;BME280;27638;42.184;24.848;2023-04-05T06:14:06;99358.38;;;7.81;78.47
41947;BME280;27638;42.184;24.848;2023-04-05T06:16:32;99366.34;;;7.89;78.71
41947;BME280;27638;42.184;24.848;2023-04-05T06:18:59;99374.41;;;7.87;79.42
41947;BME280;27638;42.184;24.848;2023-04-05T06:21:26;99371.00;;;7.95;79.84
41947;BME280;27638;42.184;24.848;2023-04-05T06:23:52;99376.16;;;8.05;78.99
41947;BME280;27638;42.184;24.848;2023-04-05T06:26:21;99377.91;;;8.22;79.79
41947;BME280;27638;42.184;24.848;2023-04-05T06:28:51;99376.09;;;8.40;79.92
41947;BME280;27638;42.184;24.848;2023-04-05T06:31:19;99375.63;;;8.45;77.68
41947;BME280;27638;42.184;24.848;2023-04-05T06:33:45;99385.69;;;8.41;76.38
41947;BME280;27638;42.184;24.848;2023-04-05T06:36:11;99383.91;;;8.32;76.27
41947;BME280;27638;42.184;24.848;2023-04-05T06:38:37;99389.09;;;8.34;76.54
41947;BME280;27638;42.184;24.848;2023-04-05T06:41:02;99381.06;;;8.43;77.75
41947;BME280;27638;42.184;24.848;2023-04-05T06:43:29;99383.19;;;8.40;76.90
41947;BME280;27638;42.184;24.848;2023-04-05T06:45:55;99381.53;;;8.39;76.52
41947;BME280;27638;42.184;24.848;2023-04-05T06:48:21;99391.13;;;8.40;76.42
41947;BME280;27638;42.184;24.848;2023-04-05T06:50:46;99390.44;;;8.38;76.02
41947;BME280;27638;42.184;24.848;2023-04-05T06:53:12;99401.16;;;8.36;76.29
41947;BME280;27638;42.184;24.848;2023-04-05T06:55:48;99399.69;;;8.42;77.86
41947;BME280;27638;42.184;24.848;2023-04-05T06:58:14;99400.16;;;8.37;78.52
41947;BME280;27638;42.184;24.848;2023-04-05T07:00:40;99404.00;;;8.43;77.22
41947;BME280;27638;42.184;24.848;2023-04-05T07:03:05;99410.41;;;8.40;76.13
41947;BME280;27638;42.184;24.848;2023-04-05T07:05:31;99408.38;;;8.34;76.92
41947;BME280;27638;42.184;24.848;2023-04-05T07:07:56;99410.72;;;8.37;77.45
41947;BME280;27638;42.184;24.848;2023-04-05T07:10:22;99421.94;;;8.39;75.95
41947;BME280;27638;42.184;24.848;2023-04-05T07:12:47;99419.47;;;8.38;77.00
41947;BME280;27638;42.184;24.848;2023-04-05T07:15:13;99420.81;;;8.42;76.48
41947;BME280;27638;42.184;24.848;2023-04-05T07:17:38;99431.81;;;8.37;76.67
41947;BME280;27638;42.184;24.848;2023-04-05T07:20:04;99425.47;;;8.48;77.27
41947;BME280;27638;42.184;24.848;2023-04-05T07:22:32;99432.59;;;8.55;75.77
41947;BME280;27638;42.184;24.848;2023-04-05T07:24:58;99432.91;;;8.52;76.67
41947;BME280;27638;42.184;24.848;2023-04-05T07:27:23;99435.59;;;8.60;77.32
41947;BME280;27638;42.184;24.848;2023-04-05T07:29:49;99429.00;;;8.64;76.52
41947;BME280;27638;42.184;24.848;2023-04-05T07:32:15;99441.41;;;8.72;75.74
41947;BME280;27638;42.184;24.848;2023-04-05T07:34:40;99438.47;;;8.75;75.52
41947;BME280;27638;42.184;24.848;2023-04-05T07:37:06;99443.22;;;8.72;74.47
41947;BME280;27638;42.184;24.848;2023-04-05T07:39:32;99445.56;;;8.75;76.03
41947;BME280;27638;42.184;24.848;2023-04-05T07:41:57;99446.91;;;8.79;75.74
41947;BME280;27638;42.184;24.848;2023-04-05T07:44:23;99446.38;;;8.75;74.63
41947;BME280;27638;42.184;24.848;2023-04-05T07:46:49;99449.84;;;8.76;75.77
41947;BME280;27638;42.184;24.848;2023-04-05T07:49:14;99454.50;;;8.82;75.37
41947;BME280;27638;42.184;24.848;2023-04-05T07:51:40;99447.44;;;8.90;75.97
41947;BME280;27638;42.184;24.848;2023-04-05T07:54:07;99449.31;;;9.06;76.62
41947;BME280;27638;42.184;24.848;2023-04-05T07:56:33;99449.53;;;9.21;76.12
41947;BME280;27638;42.184;24.848;2023-04-05T07:59:00;99459.34;;;9.37;75.08
41947;BME280;27638;42.184;24.848;2023-04-05T08:01:26;99457.66;;;9.27;74.96
41947;BME280;27638;42.184;24.848;2023-04-05T08:03:55;99455.03;;;9.36;74.65
41947;BME280;27638;42.184;24.848;2023-04-05T08:06:23;99464.81;;;9.43;74.10
41947;BME280;27638;42.184;24.848;2023-04-05T08:08:49;99465.97;;;9.41;74.42
41947;BME280;27638;42.184;24.848;2023-04-05T08:11:15;99465.34;;;9.55;75.50
41947;BME280;27638;42.184;24.848;2023-04-05T08:13:41;99461.38;;;9.59;74.61
41947;BME280;27638;42.184;24.848;2023-04-05T08:16:07;99463.19;;;9.58;73.26
41947;BME280;27638;42.184;24.848;2023-04-05T08:18:33;99459.41;;;9.61;73.72
41947;BME280;27638;42.184;24.848;2023-04-05T08:20:59;99467.50;;;9.68;72.15
41947;BME280;27638;42.184;24.848;2023-04-05T08:23:25;99473.31;;;9.71;72.71
41947;BME280;27638;42.184;24.848;2023-04-05T08:25:51;99470.81;;;9.62;71.49
41947;BME280;27638;42.184;24.848;2023-04-05T08:28:17;99473.09;;;9.56;71.84
41947;BME280;27638;42.184;24.848;2023-04-05T08:30:43;99468.66;;;9.57;72.66
41947;BME280;27638;42.184;24.848;2023-04-05T08:33:10;99475.28;;;9.69;72.62
41947;BME280;27638;42.184;24.848;2023-04-05T08:35:36;99471.66;;;9.78;72.81
41947;BME280;27638;42.184;24.848;2023-04-05T08:38:03;99476.63;;;9.89;71.21
41947;BME280;27638;42.184;24.848;2023-04-05T08:40:42;99474.31;;;10.03;71.49
41947;BME280;27638;42.184;24.848;2023-04-05T08:43:38;99478.31;;;10.23;71.70
41947;BME280;27638;42.184;24.848;2023-04-05T08:46:07;99471.38;;;10.30;70.47
41947;BME280;27638;42.184;24.848;2023-04-05T08:48:34;99476.00;;;10.44;71.79
41947;BME280;27638;42.184;24.848;2023-04-05T08:51:02;99485.59;;;10.53;70.73
41947;BME280;27638;42.184;24.848;2023-04-05T08:53:28;99477.47;;;10.39;72.60
41947;BME280;27638;42.184;24.848;2023-04-05T08:55:57;99482.28;;;10.51;70.68
41947;BME280;27638;42.184;24.848;2023-04-05T08:58:25;99480.97;;;10.55;70.64
41947;BME280;27638;42.184;24.848;2023-04-05T09:00:51;99482.59;;;10.57;69.69
41947;BME280;27638;42.184;24.848;2023-04-05T09:03:22;99485.78;;;10.44;70.95
41947;BME280;27638;42.184;24.848;2023-04-05T09:05:52;99490.25;;;10.43;70.66
41947;BME280;27638;42.184;24.848;2023-04-05T09:08:18;99480.16;;;10.47;72.73
41947;BME280;27638;42.184;24.848;2023-04-05T09:10:48;99489.56;;;10.49;70.58
41947;BME280;27638;42.184;24.848;2023-04-05T09:13:13;99486.44;;;10.46;70.34
41947;BME280;27638;42.184;24.848;2023-04-05T09:15:39;99481.13;;;10.46;70.88
41947;BME280;27638;42.184;24.848;2023-04-05T09:18:05;99487.56;;;10.27;70.53
41947;BME280;27638;42.184;24.848;2023-04-05T09:20:31;99481.63;;;10.33;72.52
41947;BME280;27638;42.184;24.848;2023-04-05T09:22:56;99483.59;;;10.31;70.06
41947;BME280;27638;42.184;24.848;2023-04-05T09:28:00;99485.25;;;10.32;70.31
41947;BME280;27638;42.184;24.848;2023-04-05T09:30:28;99483.09;;;10.28;70.66
41947;BME280;27638;42.184;24.848;2023-04-05T09:32:55;99485.91;;;10.34;71.54
41947;BME280;27638;42.184;24.848;2023-04-05T09:35:21;99490.56;;;10.40;72.52
41947;BME280;27638;42.184;24.848;2023-04-05T09:37:52;99490.25;;;10.43;71.35
41947;BME280;27638;42.184;24.848;2023-04-05T09:40:18;99496.84;;;10.47;70.15
41947;BME280;27638;42.184;24.848;2023-04-05T09:42:44;99492.88;;;10.60;71.77
41947;BME280;27638;42.184;24.848;2023-04-05T09:45:11;99492.69;;;10.69;71.88
41947;BME280;27638;42.184;24.848;2023-04-05T09:47:37;99497.63;;;10.80;70.71
41947;BME280;27638;42.184;24.848;2023-04-05T09:50:16;99495.78;;;10.81;70.50
41947;BME280;27638;42.184;24.848;2023-04-05T09:52:43;99494.16;;;10.80;69.33
41947;BME280;27638;42.184;24.848;2023-04-05T09:55:09;99497.78;;;10.79;70.31
41947;BME280;27638;42.184;24.848;2023-04-05T09:57:39;99496.50;;;10.67;67.95
41947;BME280;27638;42.184;24.848;2023-04-05T10:00:16;99494.34;;;10.70;69.44
41947;BME280;27638;42.184;24.848;2023-04-05T10:02:43;99496.16;;;10.70;68.34
41947;BME280;27638;42.184;24.848;2023-04-05T10:05:11;99500.63;;;10.61;69.18
41947;BME280;27638;42.184;24.848;2023-04-05T10:07:44;99499.50;;;10.55;69.73
41947;BME280;27638;42.184;24.848;2023-04-05T10:10:13;99498.31;;;10.58;69.96
41947;BME280;27638;42.184;24.848;2023-04-05T10:12:40;99502.31;;;10.54;68.42
41947;BME280;27638;42.184;24.848;2023-04-05T10:15:10;99496.69;;;10.57;69.04
41947;BME280;27638;42.184;24.848;2023-04-05T10:17:47;99487.06;;;10.56;68.18
41947;BME280;27638;42.184;24.848;2023-04-05T10:20:22;99501.97;;;10.49;70.39
41947;BME280;27638;42.184;24.848;2023-04-05T10:28:25;99504.09;;;10.37;69.01
41947;BME280;27638;42.184;24.848;2023-04-05T10:33:42;99491.38;;;10.33;70.91
41947;BME280;27638;42.184;24.848;2023-04-05T10:36:52;99506.09;;;10.27;70.53
41947;BME280;27638;42.184;24.848;2023-04-05T10:39:53;99503.94;;;10.31;70.31
41947;BME280;27638;42.184;24.848;2023-04-05T10:42:41;99508.25;;;10.23;69.08
41947;BME280;27638;42.184;24.848;2023-04-05T10:45:11;99499.94;;;10.18;68.51
41947;BME280;27638;42.184;24.848;2023-04-05T10:47:44;99507.88;;;10.10;70.21
41947;BME280;27638;42.184;24.848;2023-04-05T10:50:16;99507.72;;;10.12;69.98
41947;BME280;27638;42.184;24.848;2023-04-05T10:52:46;99502.44;;;10.12;69.36
41947;BME280;27638;42.184;24.848;2023-04-05T10:55:12;99505.09;;;10.20;71.42
41947;BME280;27638;42.184;24.848;2023-04-05T10:57:38;99505.59;;;10.23;70.60
41947;BME280;27638;42.184;24.848;2023-04-05T11:00:05;99512.88;;;10.21;70.40
41947;BME280;27638;42.184;24.848;2023-04-05T11:02:31;99514.19;;;10.26;71.29
41947;BME280;27638;42.184;24.848;2023-04-05T11:05:02;99516.06;;;10.41;69.85
41947;BME280;27638;42.184;24.848;2023-04-05T11:07:41;99515.06;;;10.42;68.46
41947;BME280;27638;42.184;24.848;2023-04-05T11:10:15;99512.38;;;10.34;69.21
41947;BME280;27638;42.184;24.848;2023-04-05T11:23:14;99515.06;;;10.42;75.06
41947;BME280;27638;42.184;24.848;2023-04-05T11:25:46;99509.59;;;10.44;74.35
41947;BME280;27638;42.184;24.848;2023-04-05T11:28:28;99511.88;;;10.39;73.38
41947;BME280;27638;42.184;24.848;2023-04-05T11:30:55;99514.22;;;10.42;75.57
41947;BME280;27638;42.184;24.848;2023-04-05T11:33:37;99516.06;;;10.41;70.04
41947;BME280;27638;42.184;24.848;2023-04-05T11:36:03;99515.72;;;10.52;70.08
41947;BME280;27638;42.184;24.848;2023-04-05T11:38:28;99525.16;;;10.47;67.95
41947;BME280;27638;42.184;24.848;2023-04-05T11:41:12;99521.31;;;10.58;67.42
41947;BME280;27638;42.184;24.848;2023-04-05T11:43:45;99521.81;;;10.61;69.39
41947;BME280;27638;42.184;24.848;2023-04-05T11:46:16;99517.34;;;10.70;69.69
41947;BME280;27638;42.184;24.848;2023-04-05T11:48:48;99521.47;;;10.72;67.72
41947;BME280;27638;42.184;24.848;2023-04-05T11:51:15;99523.16;;;10.57;66.82
41947;BME280;27638;42.184;24.848;2023-04-05T11:53:45;99523.97;;;10.66;65.61
41947;BME280;27638;42.184;24.848;2023-04-05T11:56:11;99522.47;;;10.63;65.90
41947;BME280;27638;42.184;24.848;2023-04-05T11:58:37;99518.19;;;10.62;65.66
41947;BME280;27638;42.184;24.848;2023-04-05T12:01:04;99523.13;;;10.65;66.51
41947;BME280;27638;42.184;24.848;2023-04-05T12:03:35;99516.19;;;10.72;67.92
41947;BME280;27638;42.184;24.848;2023-04-05T12:06:02;99521.31;;;10.58;68.43
41947;BME280;27638;42.184;24.848;2023-04-05T12:08:43;99517.34;;;10.70;65.66
41947;BME280;27638;42.184;24.848;2023-04-05T12:11:24;99510.91;;;10.64;65.74
41947;BME280;27638;42.184;24.848;2023-04-05T12:13:59;99510.22;;;10.70;65.79
41947;BME280;27638;42.184;24.848;2023-04-05T12:16:25;99518.50;;;10.67;65.77
41947;BME280;27638;42.184;24.848;2023-04-05T12:18:58;99516.19;;;10.56;65.13
41947;BME280;27638;42.184;24.848;2023-04-05T12:21:25;99517.03;;;10.48;67.58
41947;BME280;27638;42.184;24.848;2023-04-05T12:23:52;99514.06;;;10.51;67.31
41947;BME280;27638;42.184;24.848;2023-04-05T12:26:18;99517.03;;;10.40;67.51
41947;BME280;27638;42.184;24.848;2023-04-05T12:29:11;99515.06;;;10.42;68.95
41947;BME280;27638;42.184;24.848;2023-04-05T12:31:41;99517.53;;;10.60;70.12
41947;BME280;27638;42.184;24.848;2023-04-05T12:34:08;99514.53;;;10.63;68.73
41947;BME280;27638;42.184;24.848;2023-04-05T12:36:34;99520.66;;;10.55;68.45
41947;BME280;27638;42.184;24.848;2023-04-05T12:39:00;99510.25;;;10.54;69.71
41947;BME280;27638;42.184;24.848;2023-04-05T12:41:30;99516.34;;;10.63;71.34
41947;BME280;27638;42.184;24.848;2023-04-05T12:43:57;99506.75;;;10.62;68.42
41947;BME280;27638;42.184;24.848;2023-04-05T12:46:39;99511.41;;;10.60;69.04
41947;BME280;27638;42.184;24.848;2023-04-05T12:49:05;99506.94;;;10.52;67.98
41947;BME280;27638;42.184;24.848;2023-04-05T12:51:31;99513.41;;;10.41;67.69
41947;BME280;27638;42.184;24.848;2023-04-05T12:53:59;99520.31;;;10.34;68.25
41947;BME280;27638;42.184;24.848;2023-04-05T12:56:27;99520.81;;;10.30;69.39
41947;BME280;27638;42.184;24.848;2023-04-05T12:58:53;99518.63;;;10.17;72.63
41947;BME280;27638;42.184;24.848;2023-04-05T13:01:19;99515.16;;;10.16;73.63
41947;BME280;27638;42.184;24.848;2023-04-05T13:03:46;99517.97;;;10.07;74.38
41947;BME280;27638;42.184;24.848;2023-04-05T13:06:11;99517.31;;;10.13;73.29
41947;BME280;27638;42.184;24.848;2023-04-05T13:08:37;99510.03;;;10.07;72.50
41947;BME280;27638;42.184;24.848;2023-04-05T13:11:02;99521.44;;;10.07;72.65
41947;BME280;27638;42.184;24.848;2023-04-05T13:13:28;99519.13;;;10.12;72.08
41947;BME280;27638;42.184;24.848;2023-04-05T13:15:53;99526.56;;;10.17;70.52
41947;BME280;27638;42.184;24.848;2023-04-05T13:18:19;99518.13;;;10.13;71.21
41947;BME280;27638;42.184;24.848;2023-04-05T13:20:45;99523.75;;;10.10;71.16
41947;BME280;27638;42.184;24.848;2023-04-05T13:23:11;99528.38;;;10.16;72.22
41947;BME280;27638;42.184;24.848;2023-04-05T13:25:38;99527.22;;;10.11;75.69
41947;BME280;27638;42.184;24.848;2023-04-05T13:28:04;99530.22;;;10.16;78.10
41947;BME280;27638;42.184;24.848;2023-04-05T13:30:30;99528.56;;;10.15;80.03
41947;BME280;27638;42.184;24.848;2023-04-05T13:32:56;99518.94;;;9.98;79.78
41947;BME280;27638;42.184;24.848;2023-04-05T13:35:21;99521.25;;;9.84;80.54